Time;durP1;ratioP1;P1;durP2;ratioP2;P2;SDS_P1;SDS_P2;PMS_P1;PMS_P2;Temp;Humidity;BMP_temperature;BMP_pressure;BME280_temperature;BME280_humidity;BME280_pressure;Samples;Min_cycle;Max_cycle;Signal;HPM_P1;HPM_P2
2022/10/31 06:05:49;;;;;;;16.77;10.63;;;;;;;11.52;100.00;101995.13;4993035;28;20050;-77
2022/10/31 06:08:14;;;;;;;14.35;10.27;;;;;;;11.51;100.00;101996.31;4996103;28;20026;-76
2022/10/31 06:10:39;;;;;;;20.48;11.63;;;;;;;11.42;100.00;102001.25;4981849;28;20030;-78
2022/10/31 06:13:06;;;;;;;18.80;11.88;;;;;;;11.41;100.00;102002.44;5065811;22;20052;-77
2022/10/31 06:15:31;;;;;;;17.60;11.57;;;;;;;11.49;100.00;101995.03;5052853;28;20565;-77
2022/10/31 06:17:58;;;;;;;19.15;10.27;;;;;;;11.44;100.00;102004.50;5034294;28;20049;-77
2022/10/31 06:20:24;;;;;;;16.60;10.45;;;;;;;11.39;100.00;102001.97;5037760;28;20058;-78
2022/10/31 06:22:49;;;;;;;21.60;11.80;;;;;;;11.41;100.00;101996.81;5059214;28;20032;-78
2022/10/31 06:25:14;;;;;;;18.80;11.60;;;;;;;11.35;100.00;102003.84;5056347;28;20133;-77
2022/10/31 06:27:39;;;;;;;18.77;11.02;;;;;;;11.33;100.00;101992.19;5061559;28;20025;-78
2022/10/31 06:30:05;;;;;;;18.35;10.50;;;;;;;11.39;100.00;102001.97;5036963;28;20027;-77
2022/10/31 06:32:31;;;;;;;17.02;10.98;;;;;;;11.30;100.00;101992.88;5053388;28;20032;-77
2022/10/31 06:34:56;;;;;;;16.27;9.88;;;;;;;11.32;100.00;101994.16;5051745;28;20040;-77
2022/10/31 06:37:21;;;;;;;17.15;10.27;;;;;;;11.29;100.00;101994.88;5049548;28;20036;-77
2022/10/31 06:39:47;;;;;;;17.50;9.93;;;;;;;11.33;100.00;101997.78;5053803;28;20032;-77
2022/10/31 06:42:12;;;;;;;17.75;10.88;;;;;;;11.27;100.00;101997.22;5051345;28;20070;-77
2022/10/31 06:44:37;;;;;;;14.60;10.00;;;;;;;11.29;100.00;101999.66;5059900;28;20068;-77
2022/10/31 06:47:03;;;;;;;14.95;10.07;;;;;;;11.25;100.00;101995.94;5060974;28;20383;-78
2022/10/31 06:49:28;;;;;;;14.35;9.05;;;;;;;11.24;100.00;101985.91;5058760;28;20086;-77
2022/10/31 06:51:53;;;;;;;13.10;9.20;;;;;;;11.21;100.00;102003.41;5060318;28;20126;-77
2022/10/31 06:54:19;;;;;;;14.65;9.23;;;;;;;11.18;100.00;102004.97;5055105;28;20396;-76
2022/10/31 06:56:48;;;;;;;12.05;8.43;;;;;;;11.03;100.00;102009.31;5054272;28;20189;-78
2022/10/31 06:59:14;;;;;;;13.57;9.57;;;;;;;10.92;100.00;102014.59;5041390;28;20032;-78
2022/10/31 07:01:39;;;;;;;13.35;8.30;;;;;;;10.94;100.00;102017.03;5053645;28;20032;-76
2022/10/31 07:04:04;;;;;;;14.70;9.68;;;;;;;11.00;100.00;102021.22;5053236;28;20044;-76
2022/10/31 07:06:30;;;;;;;16.88;9.95;;;;;;;10.91;100.00;102021.34;5057382;28;20043;-77
2022/10/31 07:08:55;;;;;;;57.35;15.55;;;;;;;11.14;100.00;102016.06;5058901;28;20039;-78
2022/10/31 07:11:20;;;;;;;17.48;10.40;;;;;;;11.03;100.00;102020.53;5047971;28;20400;-79
2022/10/31 07:13:46;;;;;;;13.77;10.10;;;;;;;11.17;100.00;102015.34;5047970;28;20407;-79
2022/10/31 07:16:12;;;;;;;15.07;11.40;;;;;;;11.22;100.00;102008.69;5036988;28;20086;-76
2022/10/31 07:18:38;;;;;;;17.67;9.80;;;;;;;11.31;100.00;102002.94;5053471;28;20464;-78
2022/10/31 07:21:04;;;;;;;14.43;10.48;;;;;;;11.28;100.00;102003.63;5055164;28;20106;-77
2022/10/31 07:23:29;;;;;;;12.65;9.05;;;;;;;11.27;100.00;101999.19;5053696;28;20043;-77
2022/10/31 07:25:56;;;;;;;16.60;9.35;;;;;;;11.32;100.00;102007.34;5058391;28;20632;-78
2022/10/31 07:28:21;;;;;;;12.55;9.48;;;;;;;11.31;100.00;102011.34;5052075;28;20028;-78
2022/10/31 07:30:51;;;;;;;16.00;10.23;;;;;;;11.29;100.00;102010.88;5050468;28;20044;-77
2022/10/31 07:33:17;;;;;;;17.05;10.50;;;;;;;11.00;100.00;102007.19;5059352;28;20028;-79
2022/10/31 07:35:42;;;;;;;16.80;10.38;;;;;;;11.03;100.00;102014.91;5056571;28;20039;-76
2022/10/31 07:38:12;;;;;;;16.05;10.93;;;;;;;11.11;100.00;102022.38;5061315;28;20088;-76
2022/10/31 07:40:38;;;;;;;19.48;10.75;;;;;;;11.14;100.00;102009.63;5043476;28;20033;-76
2022/10/31 07:43:03;;;;;;;16.95;11.77;;;;;;;11.08;100.00;102011.84;5060545;28;20039;-76
2022/10/31 07:45:29;;;;;;;17.20;9.40;;;;;;;11.09;100.00;102019.09;5035527;28;20036;-76
2022/10/31 07:47:54;;;;;;;17.50;11.07;;;;;;;11.14;100.00;102020.84;5056017;28;20091;-76
2022/10/31 07:50:26;;;;;;;20.98;11.75;;;;;;;11.10;100.00;102012.31;5059436;28;20422;-76
2022/10/31 07:53:05;;;;;;;14.82;10.27;;;;;;;11.10;100.00;102014.31;5054311;28;20099;-75
2022/10/31 07:55:30;;;;;;;22.10;11.30;;;;;;;11.17;100.00;102018.16;5061992;28;20085;-76
2022/10/31 07:57:57;;;;;;;21.98;11.38;;;;;;;11.17;100.00;102023.75;5066112;28;20033;-75
2022/10/31 08:00:23;;;;;;;20.20;12.70;;;;;;;11.03;100.00;102028.94;5059654;28;20029;-76
2022/10/31 08:02:48;;;;;;;22.30;12.00;;;;;;;10.94;100.00;102031.88;5044361;28;20375;-76
2022/10/31 08:05:13;;;;;;;19.08;11.07;;;;;;;10.91;100.00;102028.94;5059357;28;20024;-75
2022/10/31 08:07:39;;;;;;;19.50;11.40;;;;;;;11.03;100.00;102023.31;5061058;28;20028;-76
2022/10/31 08:10:05;;;;;;;21.25;12.65;;;;;;;11.01;100.00;102034.06;5056342;28;20040;-75
2022/10/31 08:12:30;;;;;;;21.05;13.48;;;;;;;11.02;100.00;102034.88;5061099;28;20063;-75
2022/10/31 08:14:56;;;;;;;23.20;15.63;;;;;;;11.02;100.00;102029.28;5052583;28;20131;-75
2022/10/31 08:17:21;;;;;;;22.35;13.65;;;;;;;11.14;100.00;102032.88;5059203;28;20028;-74
2022/10/31 08:19:46;;;;;;;21.52;13.23;;;;;;;11.16;100.00;102029.72;5055067;28;21532;-75
2022/10/31 08:22:12;;;;;;;22.83;13.90;;;;;;;11.15;100.00;102037.31;5062781;28;20031;-75
2022/10/31 08:24:37;;;;;;;31.40;16.95;;;;;;;11.18;100.00;102033.78;5058545;28;20036;-75
2022/10/31 08:27:02;;;;;;;23.95;15.55;;;;;;;11.09;100.00;102041.53;5038858;28;20151;-76
2022/10/31 08:29:27;;;;;;;29.80;15.70;;;;;;;11.18;100.00;102031.00;5040314;28;20077;-75
2022/10/31 08:31:53;;;;;;;22.45;15.52;;;;;;;11.28;100.00;102037.25;5058268;28;20115;-75
2022/10/31 08:34:18;;;;;;;26.23;15.30;;;;;;;11.30;100.00;102041.34;5059544;28;20739;-76
2022/10/31 08:36:45;;;;;;;28.20;16.42;;;;;;;11.35;100.00;102031.88;5054907;28;20601;-77
2022/10/31 08:39:11;;;;;;;26.25;16.40;;;;;;;11.37;100.00;102035.16;5059632;28;20326;-76
2022/10/31 08:41:36;;;;;;;24.85;16.17;;;;;;;11.38;100.00;102036.75;5064231;28;20023;-77
2022/10/31 08:44:01;;;;;;;29.30;17.30;;;;;;;11.33;100.00;102028.63;5052535;28;20024;-77
2022/10/31 08:46:27;;;;;;;28.00;19.42;;;;;;;11.28;100.00;102035.28;5056334;28;20115;-76
2022/10/31 08:48:52;;;;;;;33.38;20.63;;;;;;;11.32;100.00;102038.19;5061140;28;20035;-77
2022/10/31 08:51:17;;;;;;;29.63;17.95;;;;;;;11.38;100.00;102032.00;5060168;28;20052;-76
2022/10/31 08:53:43;;;;;;;37.40;21.35;;;;;;;11.31;100.00;102036.56;5065026;28;20110;-78
2022/10/31 08:56:08;;;;;;;37.42;22.00;;;;;;;11.36;100.00;102039.94;5060247;28;20059;-75
2022/10/31 08:58:33;;;;;;;37.35;21.42;;;;;;;11.34;100.00;102047.06;5054940;28;20387;-77
2022/10/31 09:01:01;;;;;;;32.65;21.05;;;;;;;11.41;100.00;102040.88;5060134;28;20391;-76
2022/10/31 09:03:30;;;;;;;39.65;24.20;;;;;;;11.56;100.00;102038.09;5036874;28;20052;-77
2022/10/31 09:06:02;;;;;;;38.38;22.33;;;;;;;11.60;100.00;102036.22;5063737;28;20553;-76
2022/10/31 09:08:32;;;;;;;44.40;24.55;;;;;;;11.60;100.00;102033.41;5041505;28;20029;-77
2022/10/31 09:10:58;;;;;;;42.45;24.35;;;;;;;11.67;100.00;102034.81;5066002;28;20538;-76
2022/10/31 09:13:24;;;;;;;46.03;25.80;;;;;;;11.71;100.00;102028.13;5081537;28;20056;-77
2022/10/31 09:15:50;;;;;;;42.90;24.13;;;;;;;11.78;100.00;102024.69;5069190;28;20047;-77
2022/10/31 09:18:18;;;;;;;40.90;25.42;;;;;;;11.87;100.00;102024.53;5041024;28;20021;-77
2022/10/31 09:20:44;;;;;;;50.33;27.85;;;;;;;11.91;100.00;102017.03;5061066;28;20533;-77
2022/10/31 09:23:11;;;;;;;50.30;27.73;;;;;;;11.98;100.00;102020.06;5041831;28;20029;-77
2022/10/31 09:25:37;;;;;;;55.20;27.88;;;;;;;12.04;100.00;102006.56;5059876;28;20096;-77
2022/10/31 09:28:04;;;;;;;52.17;26.50;;;;;;;12.08;100.00;102013.09;5051323;28;20495;-77
2022/10/31 09:30:31;;;;;;;49.65;27.58;;;;;;;12.13;100.00;102012.84;5060495;28;20392;-77
2022/10/31 09:33:01;;;;;;;55.53;27.90;;;;;;;12.16;100.00;102015.75;5049813;28;20348;-76
2022/10/31 09:35:27;;;;;;;52.28;27.42;;;;;;;12.23;100.00;102020.72;5046595;28;20563;-77
2022/10/31 09:38:00;;;;;;;57.72;28.30;;;;;;;12.41;100.00;102012.75;5063620;28;20111;-76
2022/10/31 09:41:01;;;;;;;54.58;29.88;;;;;;;12.58;100.00;102003.94;5063266;28;20126;-77
2022/10/31 09:44:00;;;;;;;56.55;29.85;;;;;;;12.73;100.00;101999.50;5051508;28;20055;-76
2022/10/31 09:46:53;;;;;;;62.22;30.95;;;;;;;12.95;100.00;101994.34;5062287;28;20017;-77
2022/10/31 09:49:53;;;;;;;60.78;30.17;;;;;;;13.10;100.00;101996.28;5061287;28;20029;-77
2022/10/31 09:52:27;;;;;;;54.97;29.35;;;;;;;13.13;100.00;101995.53;5068571;28;20368;-77
2022/10/31 09:54:58;;;;;;;51.55;26.17;;;;;;;13.13;100.00;101989.91;5066871;28;20509;-77
2022/10/31 09:57:36;;;;;;;52.33;27.30;;;;;;;13.26;100.00;101986.97;5061280;28;20032;-77
2022/10/31 10:00:07;;;;;;;53.63;26.30;;;;;;;13.38;100.00;101986.88;5061548;28;20042;-77
2022/10/31 10:02:35;;;;;;;50.30;27.30;;;;;;;13.50;100.00;101989.53;5050653;28;20046;-77
2022/10/31 10:05:09;;;;;;;47.08;25.45;;;;;;;13.65;100.00;101987.00;5062823;28;20067;-77
2022/10/31 10:07:52;;;;;;;50.55;26.33;;;;;;;13.83;100.00;101982.53;5063108;28;20051;-77
2022/10/31 10:10:37;;;;;;;45.88;24.52;;;;;;;13.92;100.00;101985.91;5068038;28;20028;-77
2022/10/31 10:13:19;;;;;;;36.15;20.35;;;;;;;13.80;100.00;101986.09;5066458;28;20052;-77
2022/10/31 10:16:03;;;;;;;41.35;22.30;;;;;;;13.90;100.00;101984.66;5059554;28;20392;-77
2022/10/31 10:18:50;;;;;;;37.58;20.02;;;;;;;13.86;100.00;101976.16;5065132;28;20028;-77
2022/10/31 10:21:54;;;;;;;36.90;19.00;;;;;;;13.93;100.00;101970.63;5031547;28;20021;-77
2022/10/31 10:24:47;;;;;;;39.10;20.00;;;;;;;14.07;100.00;101970.09;5062030;28;20070;-77
2022/10/31 10:27:20;;;;;;;38.90;19.30;;;;;;;14.20;100.00;101967.91;5067312;28;20025;-77
2022/10/31 10:30:06;;;;;;;38.08;17.55;;;;;;;14.25;100.00;101967.56;5044779;28;20032;-77
2022/10/31 10:32:41;;;;;;;37.95;19.75;;;;;;;14.18;100.00;101954.19;5061656;28;20092;-77
2022/10/31 10:35:22;;;;;;;41.65;18.50;;;;;;;14.19;100.00;101960.66;5054074;28;20482;-76
2022/10/31 10:37:52;;;;;;;35.90;19.02;;;;;;;14.25;100.00;101953.47;5064726;28;20123;-77
2022/10/31 10:40:21;;;;;;;38.90;18.77;;;;;;;14.28;100.00;101946.31;5060481;28;20021;-78
2022/10/31 10:43:22;;;;;;;36.85;19.75;;;;;;;14.22;100.00;101943.00;5059291;28;20036;-77
2022/10/31 10:48:49;;;;;;;40.08;19.48;;;;;;;14.20;100.00;101943.34;5057053;28;20067;-77
2022/10/31 10:51:21;;;;;;;39.15;20.25;;;;;;;14.34;100.00;101934.34;5059763;28;20025;-77
2022/10/31 10:54:13;;;;;;;36.15;19.58;;;;;;;14.44;100.00;101932.84;5062354;28;20024;-76
2022/10/31 10:56:50;;;;;;;35.33;17.90;;;;;;;14.49;100.00;101940.19;5054354;28;20037;-77
2022/10/31 10:59:19;;;;;;;38.33;18.02;;;;;;;14.35;100.00;101929.50;5040561;28;20149;-77
2022/10/31 11:01:47;;;;;;;35.08;18.00;;;;;;;14.40;100.00;101932.03;5065715;28;20776;-77
2022/10/31 11:04:34;;;;;;;30.08;17.20;;;;;;;14.40;100.00;101926.38;5049915;28;20048;-77
2022/10/31 11:07:10;;;;;;;32.20;17.00;;;;;;;14.38;100.00;101923.94;5059024;28;20066;-77
2022/10/31 11:09:37;;;;;;;37.28;15.98;;;;;;;14.41;100.00;101923.16;5040056;28;20491;-77
2022/10/31 11:12:22;;;;;;;39.55;17.45;;;;;;;14.46;100.00;101912.78;5063644;28;20444;-75
2022/10/31 11:14:59;;;;;;;32.40;17.55;;;;;;;14.48;100.00;101899.13;5062538;28;20563;-77
2022/10/31 11:17:40;;;;;;;33.13;15.88;;;;;;;14.56;100.00;101906.50;5063451;28;20128;-76
2022/10/31 11:20:25;;;;;;;31.15;16.48;;;;;;;14.67;100.00;101913.09;5061212;28;20031;-77
2022/10/31 11:23:01;;;;;;;32.50;15.73;;;;;;;14.67;100.00;101909.47;5056111;28;20502;-78
2022/10/31 11:25:27;;;;;;;29.63;15.63;;;;;;;14.71;100.00;101905.50;5044557;28;20036;-78
2022/10/31 11:28:00;;;;;;;45.95;18.98;;;;;;;14.84;100.00;101897.63;5044690;28;20375;-77
2022/10/31 11:30:25;;;;;;;32.95;15.80;;;;;;;14.87;100.00;101887.63;5057601;28;20024;-77
2022/10/31 11:32:52;;;;;;;29.17;17.27;;;;;;;14.94;100.00;101882.88;5065160;28;20071;-77
2022/10/31 11:35:19;;;;;;;32.03;16.88;;;;;;;14.92;100.00;101881.63;5058028;28;20020;-77
2022/10/31 11:37:48;;;;;;;33.08;16.30;;;;;;;14.96;100.00;101862.75;5063843;28;20055;-77
2022/10/31 11:40:19;;;;;;;33.15;15.98;;;;;;;14.97;100.00;101853.13;5063197;28;20032;-77
2022/10/31 11:42:45;;;;;;;30.92;15.68;;;;;;;14.98;100.00;101837.81;5065284;28;20032;-78
2022/10/31 11:45:28;;;;;;;30.55;15.63;;;;;;;14.97;100.00;101820.09;5061961;28;20090;-77
2022/10/31 11:47:55;;;;;;;;;;;;;;;14.93;100.00;101830.50;5061120;28;20862;-77
2022/10/31 11:50:24;;;;;;;34.10;16.70;;;;;;;14.88;100.00;101832.84;5061956;28;20446;-78
2022/10/31 11:52:50;;;;;;;30.67;14.82;;;;;;;14.88;100.00;101832.84;5060736;28;20035;-77
2022/10/31 11:55:30;;;;;;;29.75;15.43;;;;;;;14.88;100.00;101841.31;5061140;28;20067;-77
2022/10/31 11:57:57;;;;;;;38.92;17.60;;;;;;;14.84;100.00;101844.91;5055957;28;20024;-77
2022/10/31 12:00:38;;;;;;;27.42;14.48;;;;;;;14.83;100.00;101808.66;5039693;28;20063;-75
2022/10/31 12:03:15;;;;;;;24.92;14.05;;;;;;;14.84;100.00;101777.25;5041644;28;20028;-77
2022/10/31 12:05:44;;;;;;;23.55;13.70;;;;;;;14.80;100.00;101750.25;5060827;28;20082;-77
2022/10/31 12:08:12;;;;;;;24.17;13.32;;;;;;;14.79;100.00;101745.78;5056057;28;20036;-76
2022/10/31 12:11:02;;;;;;;23.33;14.02;;;;;;;14.72;100.00;101760.63;5058211;28;20471;-77
2022/10/31 12:13:34;;;;;;;23.20;13.27;;;;;;;14.75;100.00;101779.56;5061539;28;20895;-77
2022/10/31 12:16:09;;;;;;;25.45;14.07;;;;;;;14.76;100.00;101736.09;5058163;28;21775;-76
2022/10/31 12:18:57;;;;;;;26.45;14.45;;;;;;;14.87;100.00;101752.31;5062906;28;20044;-76
2022/10/31 12:21:37;;;;;;;24.42;13.20;;;;;;;14.95;100.00;101776.56;5060155;28;20106;-76
2022/10/31 12:24:31;;;;;;;24.45;13.73;;;;;;;15.00;100.00;101767.75;5058868;28;20066;-77
2022/10/31 12:27:05;;;;;;;20.98;12.32;;;;;;;15.07;100.00;101778.28;5060177;28;20036;-76
2022/10/31 12:30:00;;;;;;;22.65;12.90;;;;;;;15.07;100.00;101761.38;5061456;28;20090;-77
2022/10/31 12:32:29;;;;;;;26.35;13.73;;;;;;;15.10;100.00;101750.13;5057201;28;20475;-76
2022/10/31 12:35:21;;;;;;;24.67;13.88;;;;;;;15.10;100.00;101746.50;5059747;28;20028;-78
2022/10/31 12:37:57;;;;;;;23.60;13.43;;;;;;;15.10;100.00;101744.50;5057543;28;20029;-76
2022/10/31 12:40:53;;;;;;;23.30;12.52;;;;;;;15.23;100.00;101756.31;5058668;28;20036;-77
2022/10/31 12:43:45;;;;;;;23.85;12.68;;;;;;;15.24;100.00;101747.47;5058287;28;20028;-77
2022/10/31 12:46:18;;;;;;;24.65;12.40;;;;;;;15.31;100.00;101738.25;5059669;28;20131;-77
2022/10/31 12:49:05;;;;;;;25.25;12.55;;;;;;;15.42;99.99;101722.22;5055210;28;20476;-77
2022/10/31 12:51:50;;;;;;;18.92;11.15;;;;;;;15.43;99.57;101695.63;5060273;28;20550;-77
2022/10/31 12:54:37;;;;;;;21.73;11.82;;;;;;;15.43;99.99;101687.16;5044168;28;20388;-77
2022/10/31 12:57:38;;;;;;;19.30;11.00;;;;;;;15.40;100.00;101706.88;5054733;28;20050;-77
2022/10/31 13:00:12;;;;;;;25.33;11.98;;;;;;;15.35;100.00;101699.59;5060739;28;20558;-76
2022/10/31 13:02:50;;;;;;;21.58;11.43;;;;;;;15.36;100.00;101703.22;5055138;28;20028;-77
2022/10/31 13:05:37;;;;;;;19.35;11.30;;;;;;;15.40;100.00;101692.78;5057323;28;20028;-76
2022/10/31 13:08:10;;;;;;;23.42;10.80;;;;;;;15.39;100.00;101696.78;5061299;28;20523;-77
2022/10/31 13:10:50;;;;;;;27.02;11.38;;;;;;;15.33;100.00;101701.19;5054137;28;20078;-76
2022/10/31 13:13:31;;;;;;;23.52;12.90;;;;;;;15.38;100.00;101683.88;5056940;28;20143;-76
2022/10/31 13:16:05;;;;;;;24.48;11.90;;;;;;;15.39;100.00;101677.88;5049245;28;20492;-76
2022/10/31 13:18:36;;;;;;;21.52;11.93;;;;;;;15.45;100.00;101676.31;5044852;28;20032;-76
2022/10/31 13:21:09;;;;;;;21.70;12.20;;;;;;;15.54;100.00;101667.50;5050818;28;20043;-75
2022/10/31 13:23:39;;;;;;;21.98;11.30;;;;;;;15.54;100.00;101659.03;5049642;28;20039;-75
2022/10/31 13:26:36;;;;;;;25.67;11.77;;;;;;;15.52;100.00;101647.31;5035911;28;20027;-75
2022/10/31 13:29:28;;;;;;;23.23;12.40;;;;;;;15.53;100.00;101637.63;5047208;28;20032;-75
2022/10/31 13:31:53;;;;;;;23.63;12.65;;;;;;;15.55;100.00;101646.53;5044874;28;20518;-74
2022/10/31 13:34:35;;;;;;;21.52;12.38;;;;;;;15.58;100.00;101640.09;5050845;28;20033;-75
2022/10/31 13:37:18;;;;;;;25.67;12.05;;;;;;;15.58;100.00;101627.97;5056780;28;20052;-75
2022/10/31 13:40:28;;;;;;;28.85;13.52;;;;;;;15.58;100.00;101609.06;5057492;28;20085;-75
2022/10/31 13:43:17;;;;;;;28.73;12.75;;;;;;;15.57;100.00;101604.59;5056230;28;20021;-74
2022/10/31 13:45:54;;;;;;;22.98;11.80;;;;;;;15.60;100.00;101601.00;5058072;28;20032;-75
2022/10/31 13:48:35;;;;;;;30.50;13.27;;;;;;;15.59;100.00;101599.38;5059636;28;20031;-75
2022/10/31 13:51:04;;;;;;;25.02;11.90;;;;;;;15.60;100.00;101595.38;5056377;28;20029;-76
2022/10/31 13:53:37;;;;;;;28.48;13.90;;;;;;;15.57;100.00;101592.53;5040951;28;20036;-75
2022/10/31 13:56:27;;;;;;;30.40;13.77;;;;;;;15.53;100.00;101586.84;5060703;28;20020;-75
2022/10/31 13:59:21;;;;;;;27.45;13.02;;;;;;;15.56;100.00;101588.09;5060592;28;20028;-75
2022/10/31 14:01:54;;;;;;;29.77;14.20;;;;;;;15.51;100.00;101580.00;5044196;28;20063;-75
2022/10/31 14:04:46;;;;;;;26.70;13.80;;;;;;;15.52;100.00;101568.31;5062346;28;20051;-75
2022/10/31 14:07:20;;;;;;;25.15;12.80;;;;;;;15.50;100.00;101570.72;5059221;28;20036;-75
2022/10/31 14:10:20;;;;;;;31.50;12.98;;;;;;;15.51;99.76;101572.31;5057451;28;20031;-78
2022/10/31 14:12:46;;;;;;;28.50;12.10;;;;;;;15.53;99.33;101580.41;5055360;28;20517;-77
2022/10/31 14:15:21;;;;;;;24.90;12.35;;;;;;;15.52;99.63;101565.50;5030892;28;20043;-77
2022/10/31 14:18:02;;;;;;;31.50;12.85;;;;;;;15.47;99.89;101567.88;5034292;28;20033;-76
2022/10/31 14:20:41;;;;;;;29.15;13.57;;;;;;;15.44;100.00;101563.84;5034743;28;20029;-76
2022/10/31 14:23:30;;;;;;;27.55;13.23;;;;;;;15.42;100.00;101554.97;5038830;28;20048;-77
2022/10/31 14:26:25;;;;;;;29.35;13.48;;;;;;;15.44;100.00;101559.00;5036245;28;20029;-76
2022/10/31 14:28:52;;;;;;;28.42;12.75;;;;;;;15.40;100.00;101557.38;5041193;28;20126;-74
2022/10/31 14:31:31;;;;;;;27.73;12.15;;;;;;;15.36;100.00;101546.06;5037348;28;20021;-76
2022/10/31 14:33:59;;;;;;;29.42;13.60;;;;;;;15.33;100.00;101529.13;5032423;28;20451;-76
2022/10/31 14:36:32;;;;;;;28.20;13.95;;;;;;;15.33;100.00;101531.97;5040956;28;20029;-75
2022/10/31 14:39:32;;;;;;;27.00;12.73;;;;;;;15.32;100.00;101527.50;5039392;28;20434;-77
2022/10/31 14:42:07;;;;;;;30.48;13.38;;;;;;;15.30;100.00;101527.88;5044555;28;20049;-76
2022/10/31 14:44:50;;;;;;;34.00;13.20;;;;;;;15.31;100.00;101517.44;5044296;28;20028;-76
2022/10/31 14:47:53;;;;;;;29.48;14.10;;;;;;;15.33;100.00;101517.84;5024527;28;21053;-75
2022/10/31 14:50:49;;;;;;;27.60;14.50;;;;;;;15.34;100.00;101511.78;5044489;28;20052;-76
2022/10/31 14:53:20;;;;;;;30.08;13.20;;;;;;;15.32;100.00;101502.13;5024558;28;20057;-76
2022/10/31 14:55:49;;;;;;;27.33;12.48;;;;;;;15.29;100.00;101497.28;5044264;28;20487;-77
2022/10/31 14:58:20;;;;;;;26.73;13.32;;;;;;;15.29;100.00;101491.63;5025560;28;20514;-76
2022/10/31 15:00:45;;;;;;;28.90;13.25;;;;;;;15.20;100.00;101492.81;5043503;28;20135;-75
2022/10/31 15:03:21;;;;;;;26.50;13.38;;;;;;;15.21;100.00;101491.59;5038909;28;20028;-76
2022/10/31 15:05:51;;;;;;;34.05;14.63;;;;;;;15.20;100.00;101494.78;5045928;28;20119;-74
2022/10/31 15:08:26;;;;;;;28.20;13.68;;;;;;;15.19;100.00;101481.91;5023575;28;20516;-75
2022/10/31 15:10:52;;;;;;;24.45;12.77;;;;;;;15.16;100.00;101479.91;5043674;28;21207;-75
2022/10/31 15:13:21;;;;;;;30.98;13.13;;;;;;;15.12;100.00;101479.88;5048807;28;20036;-76
2022/10/31 15:15:47;;;;;;;28.95;15.48;;;;;;;15.07;100.00;101473.78;5059413;28;20416;-77
2022/10/31 15:18:27;;;;;;;27.25;13.88;;;;;;;15.04;100.00;101469.75;5059097;28;20115;-77
2022/10/31 15:20:55;;;;;;;27.58;13.00;;;;;;;15.01;100.00;101459.25;5058650;28;20360;-77
2022/10/31 15:23:28;;;;;;;25.45;11.95;;;;;;;14.94;100.00;101462.03;5059408;28;20074;-77
2022/10/31 15:26:01;;;;;;;27.05;13.75;;;;;;;14.96;100.00;101451.19;5061049;28;20032;-77
2022/10/31 15:28:27;;;;;;;31.88;14.27;;;;;;;14.92;100.00;101450.34;5062932;28;20071;-76
2022/10/31 15:30:59;;;;;;;23.35;11.52;;;;;;;14.96;100.00;101434.25;5044168;28;20424;-77
2022/10/31 15:33:30;;;;;;;32.25;15.27;;;;;;;14.90;100.00;101441.47;5056309;28;20082;-75
2022/10/31 15:35:58;;;;;;;26.90;13.73;;;;;;;14.89;100.00;101432.22;5056355;28;20040;-78
2022/10/31 15:38:25;;;;;;;28.02;15.05;;;;;;;14.87;100.00;101440.25;5051539;28;20086;-75
2022/10/31 15:41:02;;;;;;;30.00;15.68;;;;;;;14.80;100.00;101426.94;5055046;28;20373;-75
2022/10/31 15:43:35;;;;;;;34.42;17.40;;;;;;;14.76;100.00;101431.75;5058070;28;20066;-77
2022/10/31 15:46:01;;;;;;;30.08;15.63;;;;;;;14.75;100.00;101427.28;5053892;28;20087;-77
2022/10/31 15:48:27;;;;;;;29.85;15.77;;;;;;;14.68;100.00;101429.28;5047146;28;20033;-76
2022/10/31 15:50:57;;;;;;;33.15;16.60;;;;;;;14.76;100.00;101431.75;5045758;28;20028;-77
2022/10/31 15:53:32;;;;;;;37.45;16.63;;;;;;;14.71;100.00;101434.13;5058024;28;20033;-77
2022/10/31 15:56:02;;;;;;;30.45;15.77;;;;;;;14.74;100.00;101434.16;5056196;28;20387;-77
2022/10/31 15:58:28;;;;;;;32.90;18.08;;;;;;;14.65;100.00;101425.22;5041771;28;20066;-77
2022/10/31 16:01:03;;;;;;;38.50;18.00;;;;;;;14.63;100.00;101421.97;5052200;28;20031;-78
2022/10/31 16:03:33;;;;;;;30.27;15.52;;;;;;;14.58;100.00;101414.72;5035033;28;20028;-78
2022/10/31 16:06:01;;;;;;;32.35;17.30;;;;;;;14.54;100.00;101408.22;5056226;28;20021;-77
2022/10/31 16:08:30;;;;;;;36.15;16.65;;;;;;;14.58;100.00;101414.72;5055736;28;20020;-78
2022/10/31 16:11:06;;;;;;;37.17;16.95;;;;;;;14.71;100.00;101408.75;5036635;28;20438;-78
2022/10/31 16:13:34;;;;;;;36.90;16.17;;;;;;;14.64;100.00;101399.06;5051911;28;20794;-77
2022/10/31 16:16:01;;;;;;;41.42;18.02;;;;;;;14.54;100.00;101396.94;5054970;28;20036;-78
2022/10/31 16:18:30;;;;;;;34.47;17.13;;;;;;;14.55;100.00;101392.16;5059392;28;20373;-77
2022/10/31 16:20:56;;;;;;;41.25;17.85;;;;;;;14.45;100.00;101388.06;5059239;28;20032;-78
2022/10/31 16:23:24;;;;;;;39.38;18.17;;;;;;;14.49;100.00;101380.44;5056762;28;20078;-76
2022/10/31 16:25:51;;;;;;;36.08;17.73;;;;;;;14.48;100.00;101380.81;5053748;28;20479;-77
2022/10/31 16:28:23;;;;;;;35.50;19.58;;;;;;;14.42;100.00;101369.94;5055458;28;20471;-75
2022/10/31 16:30:59;;;;;;;34.90;18.70;;;;;;;14.43;100.00;101379.19;5054165;28;20082;-75
2022/10/31 16:33:35;;;;;;;31.40;16.90;;;;;;;14.40;100.00;101365.91;5038487;28;20472;-75
2022/10/31 16:36:21;;;;;;;39.78;19.70;;;;;;;14.36;100.00;101365.88;5058157;28;20035;-75
2022/10/31 16:38:47;;;;;;;40.35;18.63;;;;;;;14.35;100.00;101360.63;5022564;28;20052;-75
2022/10/31 16:41:12;;;;;;;41.75;19.83;;;;;;;14.34;100.00;101353.38;5055987;28;20193;-74
2022/10/31 16:43:37;;;;;;;38.20;20.45;;;;;;;14.35;100.00;101349.34;5054999;28;20043;-76
2022/10/31 16:46:03;;;;;;;39.28;18.50;;;;;;;14.32;100.00;101344.53;5061039;28;20028;-76
2022/10/31 16:48:28;;;;;;;39.85;20.73;;;;;;;14.33;100.00;101351.75;5040119;28;20062;-76
2022/10/31 16:50:54;;;;;;;40.65;19.67;;;;;;;14.30;100.00;101341.28;5062661;28;20493;-77
2022/10/31 16:53:19;;;;;;;44.90;20.85;;;;;;;14.22;100.00;101335.59;5057299;28;20399;-76
2022/10/31 16:55:56;;;;;;;36.45;20.73;;;;;;;14.24;100.00;101329.56;5061045;28;20029;-76
2022/10/31 16:58:24;;;;;;;43.55;21.85;;;;;;;14.23;100.00;101347.69;5059744;28;20032;-76
2022/10/31 17:00:51;;;;;;;47.35;23.55;;;;;;;14.24;100.00;101335.22;5063524;28;20032;-77
2022/10/31 17:03:16;;;;;;;41.78;21.02;;;;;;;14.18;100.00;101331.94;5060290;28;20027;-77
2022/10/31 17:05:42;;;;;;;39.45;20.75;;;;;;;14.18;100.00;101322.69;5057309;28;20383;-77
2022/10/31 17:08:08;;;;;;;42.40;19.92;;;;;;;14.16;100.00;101319.47;5064560;28;20475;-77
2022/10/31 17:10:33;;;;;;;46.30;21.48;;;;;;;14.09;100.00;101308.16;5060538;28;20468;-77
2022/10/31 17:13:02;;;;;;;41.50;20.92;;;;;;;14.11;100.00;101302.97;5057602;28;20119;-77
2022/10/31 17:15:31;;;;;;;42.55;19.65;;;;;;;14.17;100.00;101305.00;5028173;28;20052;-77
2022/10/31 17:17:56;;;;;;;39.55;20.75;;;;;;;14.11;100.00;101314.22;5035902;28;20035;-76
2022/10/31 17:20:28;;;;;;;53.00;22.10;;;;;;;14.05;100.00;101298.91;5043849;28;20041;-77
2022/10/31 17:22:54;;;;;;;43.90;22.27;;;;;;;14.10;100.00;101304.94;5022713;28;20414;-77
2022/10/31 17:25:22;;;;;;;42.95;21.15;;;;;;;14.07;100.00;101304.94;5022880;28;20501;-76
2022/10/31 17:27:49;;;;;;;48.88;22.45;;;;;;;14.02;100.00;101306.13;5036795;28;20039;-77
2022/10/31 17:30:17;;;;;;;43.70;21.45;;;;;;;14.05;100.00;101296.09;5035293;28;20604;-77
2022/10/31 17:32:43;;;;;;;53.63;22.63;;;;;;;14.07;100.00;101300.13;5036698;28;20476;-78
2022/10/31 17:35:09;;;;;;;44.13;20.48;;;;;;;14.06;100.00;101298.47;5035340;28;20048;-77